Time;durP1;ratioP1;P1;durP2;ratioP2;P2;SDS_P1;SDS_P2;PMS_P1;PMS_P2;Temp;Humidity;BMP_temperature;BMP_pressure;BME280_temperature;BME280_humidity;BME280_pressure;Samples;Min_cycle;Max_cycle;Signal;HPM_P1;HPM_P2
2024/01/15 00:00:05;;;;;;;8.70;3.37;;;;;;;0.22;100.00;97929.53;4245225;28;23258;-48
2024/01/15 00:02:32;;;;;;;3.07;1.70;;;;;;;0.23;100.00;97920.56;4253346;28;20292;-66
2024/01/15 00:04:59;;;;;;;1.77;0.77;;;;;;;0.28;100.00;97921.81;4250443;28;20647;-65
2024/01/15 00:07:26;;;;;;;5.30;2.43;;;;;;;0.12;100.00;97925.06;4241313;28;20226;-64
2024/01/15 00:09:52;;;;;;;24.30;8.23;;;;;;;0.23;100.00;97924.06;4246927;28;20296;-63
2024/01/15 00:12:19;;;;;;;13.50;5.57;;;;;;;0.24;100.00;97915.13;4254354;28;20237;-64
2024/01/15 00:14:45;;;;;;;17.17;7.40;;;;;;;0.27;100.00;97890.84;4244317;28;25460;-64
2024/01/15 00:17:12;;;;;;;16.57;7.47;;;;;;;0.21;100.00;97894.09;4236333;28;20237;-63
2024/01/15 00:19:38;;;;;;;20.67;7.77;;;;;;;0.23;100.00;97893.94;4246143;28;20268;-65
2024/01/15 00:22:05;;;;;;;11.80;3.97;;;;;;;0.17;100.00;97887.41;4242222;28;20300;-65
2024/01/15 00:24:32;;;;;;;22.50;7.17;;;;;;;0.30;100.00;97871.13;4238057;28;20511;-64
2024/01/15 00:26:58;;;;;;;16.50;6.17;;;;;;;0.23;100.00;97870.84;4249092;28;20257;-66
2024/01/15 00:29:25;;;;;;;0.37;0.20;;;;;;;0.27;100.00;97869.56;4250814;28;20244;-65
2024/01/15 00:31:52;;;;;;;1.30;0.63;;;;;;;0.30;100.00;97869.28;4245135;28;20227;-66
2024/01/15 00:34:18;;;;;;;19.00;5.83;;;;;;;0.36;100.00;97873.19;4241333;28;25079;-65
2024/01/15 00:36:45;;;;;;;20.77;7.43;;;;;;;0.39;100.00;97864.91;4241293;28;20234;-64
2024/01/15 00:39:11;;;;;;;16.67;5.83;;;;;;;0.33;100.00;97857.50;4244081;28;20221;-66
2024/01/15 00:41:38;;;;;;;9.50;4.03;;;;;;;0.27;100.00;97855.44;4244065;28;21893;-66
2024/01/15 00:44:04;;;;;;;1.60;0.40;;;;;;;0.29;100.00;97856.13;4238791;28;20253;-65
2024/01/15 00:46:31;;;;;;;4.37;2.10;;;;;;;0.25;100.00;97854.75;4240321;28;20274;-65
2024/01/15 00:48:57;;;;;;;1.27;1.20;;;;;;;0.30;100.00;97842.69;4237263;28;20314;-66
2024/01/15 00:51:24;;;;;;;21.67;8.40;;;;;;;0.26;100.00;97846.63;4243097;28;20611;-64
2024/01/15 00:53:51;;;;;;;16.67;6.43;;;;;;;0.14;100.00;97845.13;4238207;28;20243;-66
2024/01/15 00:56:17;;;;;;;15.00;5.10;;;;;;;0.20;100.00;97843.69;4236051;28;22279;-67
2024/01/15 00:58:44;;;;;;;17.97;5.80;;;;;;;0.12;100.00;97839.09;4246566;28;20257;-65
2024/01/15 01:01:11;;;;;;;9.20;3.47;;;;;;;0.10;100.00;97836.59;4243008;28;20304;-66
2024/01/15 01:03:37;;;;;;;22.10;8.30;;;;;;;0.12;100.00;97837.28;4235379;28;20229;-65
2024/01/15 01:06:04;;;;;;;10.53;4.03;;;;;;;-0.02;100.00;97825.28;4245736;28;20308;-65
2024/01/15 01:08:31;;;;;;;23.30;8.43;;;;;;;0.03;100.00;97827.50;4240367;28;22044;-65
2024/01/15 01:10:57;;;;;;;22.07;8.90;;;;;;;-0.03;100.00;97826.25;4247297;28;20230;-65
2024/01/15 01:13:24;;;;;;;24.23;8.93;;;;;;;-0.08;100.00;97812.56;4232691;28;21270;-65
2024/01/15 01:15:50;;;;;;;15.17;6.37;;;;;;;-0.06;100.00;97813.28;4256642;28;20504;-65
2024/01/15 01:18:17;;;;;;;30.47;9.30;;;;;;;-0.06;100.00;97812.41;4235495;28;20226;-66
2024/01/15 01:20:44;;;;;;;12.87;3.63;;;;;;;-0.03;100.00;97815.63;4238018;28;20495;-65
2024/01/15 01:23:12;;;;;;;19.57;8.37;;;;;;;-0.12;100.00;97813.84;4232065;28;22895;-64
2024/01/15 01:25:38;;;;;;;23.13;8.93;;;;;;;-0.11;100.00;97812.84;4242701;28;20307;-64
2024/01/15 01:28:05;;;;;;;18.30;7.90;;;;;;;-0.11;100.00;97812.84;4237402;28;21386;-64
2024/01/15 01:30:31;;;;;;;24.07;9.53;;;;;;;-0.25;100.00;97803.53;4253030;28;21142;-64
2024/01/15 01:32:58;;;;;;;35.63;9.80;;;;;;;-0.23;100.00;97811.34;4223089;28;20245;-66
2024/01/15 01:35:25;;;;;;;6.93;2.90;;;;;;;-0.19;100.00;97805.59;4238822;28;22104;-64
2024/01/15 01:37:51;;;;;;;23.63;8.13;;;;;;;-0.15;100.00;97797.34;4243902;28;20641;-63
2024/01/15 01:40:18;;;;;;;24.33;9.83;;;;;;;-0.05;100.00;97792.81;4242717;28;20284;-66
2024/01/15 01:42:45;;;;;;;23.40;9.67;;;;;;;-0.04;100.00;97797.16;4242190;28;20230;-66
2024/01/15 01:45:11;;;;;;;20.57;8.97;;;;;;;-0.11;100.00;97788.09;4239875;28;20237;-64
2024/01/15 01:47:38;;;;;;;32.30;10.60;;;;;;;-0.09;100.00;97776.31;4242523;28;21557;-64
2024/01/15 01:50:06;;;;;;;26.30;9.07;;;;;;;-0.05;100.00;97771.56;4245889;28;20226;-65
2024/01/15 01:52:34;;;;;;;28.87;10.67;;;;;;;0.04;100.00;97773.34;4240103;28;22151;-65
2024/01/15 01:55:02;;;;;;;20.60;8.07;;;;;;;-0.05;100.00;97769.75;4241627;28;20307;-64
2024/01/15 01:57:30;;;;;;;23.83;9.80;;;;;;;-0.08;100.00;97774.53;4239563;28;20299;-65
2024/01/15 01:59:58;;;;;;;20.47;8.83;;;;;;;-0.06;100.00;97775.19;4232140;28;20230;-65
2024/01/15 02:02:24;;;;;;;24.33;10.53;;;;;;;-0.03;100.00;97769.59;4239425;28;20222;-66
2024/01/15 02:04:51;;;;;;;8.97;3.37;;;;;;;0.01;100.00;97764.81;4240696;28;20274;-66
2024/01/15 02:07:17;;;;;;;29.67;10.53;;;;;;;0.03;100.00;97765.50;4240464;28;20609;-65
2024/01/15 02:09:45;;;;;;;25.57;9.97;;;;;;;0.04;100.00;97762.69;4239051;28;20279;-67
2024/01/15 02:12:12;;;;;;;27.90;10.93;;;;;;;0.03;100.00;97753.03;4235136;28;20844;-64
2024/01/15 02:14:40;;;;;;;21.97;10.30;;;;;;;0.09;100.00;97754.28;4241583;28;21368;-65
2024/01/15 02:17:06;;;;;;;20.70;7.47;;;;;;;0.07;100.00;97746.47;4238993;28;20231;-64
2024/01/15 02:19:33;;;;;;;28.10;10.67;;;;;;;0.09;100.00;97739.16;4236558;28;20234;-66
2024/01/15 02:22:00;;;;;;;24.53;10.33;;;;;;;0.12;100.00;97738.00;4235789;28;20230;-66
2024/01/15 02:24:26;;;;;;;24.03;9.10;;;;;;;0.17;100.00;97732.25;4241874;28;22946;-64
2024/01/15 02:26:53;;;;;;;15.33;5.40;;;;;;;0.03;100.00;97734.41;4246558;28;20256;-67
2024/01/15 02:29:20;;;;;;;23.53;9.07;;;;;;;0.06;100.00;97727.97;4239006;28;20233;-65
2024/01/15 02:31:46;;;;;;;25.83;10.57;;;;;;;0.15;100.00;97727.09;4242027;28;20592;-65
2024/01/15 02:34:13;;;;;;;26.50;10.60;;;;;;;0.18;100.00;97723.28;4232472;28;20313;-65
2024/01/15 02:36:40;;;;;;;23.10;9.33;;;;;;;0.07;100.00;97714.53;4238256;28;20229;-64
2024/01/15 02:39:06;;;;;;;25.33;9.27;;;;;;;0.07;100.00;97721.66;4235542;28;22595;-66
2024/01/15 02:41:33;;;;;;;27.40;9.87;;;;;;;0.06;100.00;97712.88;4238847;28;20277;-65
2024/01/15 02:43:59;;;;;;;24.27;10.10;;;;;;;0.08;100.00;97705.56;4241606;28;20283;-65
2024/01/15 02:46:26;;;;;;;27.43;10.67;;;;;;;0.04;100.00;97706.84;4240744;28;22849;-65
2024/01/15 02:48:52;;;;;;;21.23;9.73;;;;;;;0.08;100.00;97702.88;4238995;28;20549;-65
2024/01/15 02:51:19;;;;;;;24.03;9.83;;;;;;;0.09;100.00;97691.28;4236106;28;20447;-64
2024/01/15 02:53:46;;;;;;;29.33;10.30;;;;;;;0.18;100.00;97691.38;4245168;28;20246;-64
2024/01/15 02:56:12;;;;;;;26.40;10.27;;;;;;;0.09;100.00;97693.94;4250552;28;20270;-65
2024/01/15 02:58:38;;;;;;;27.23;10.27;;;;;;;0.08;100.00;97680.78;4240690;28;20299;-64
2024/01/15 03:01:05;;;;;;;23.93;10.30;;;;;;;0.08;100.00;97676.28;4246381;28;20308;-64
2024/01/15 03:03:33;;;;;;;29.77;9.37;;;;;;;0.08;100.00;97665.66;4249589;28;22903;-64
2024/01/15 03:06:01;;;;;;;28.20;10.50;;;;;;;0.09;100.00;97663.84;4245321;28;20703;-67
2024/01/15 03:08:29;;;;;;;24.40;10.10;;;;;;;0.14;100.00;97665.06;4224937;28;20233;-64
2024/01/15 03:10:55;;;;;;;30.53;9.23;;;;;;;0.01;100.00;97658.44;4246075;28;20769;-65
2024/01/15 03:13:22;;;;;;;28.23;9.83;;;;;;;0.07;100.00;97648.03;4250593;28;20763;-65
2024/01/15 03:15:48;;;;;;;28.63;10.10;;;;;;;0.01;100.00;97645.13;4242450;28;21526;-65
2024/01/15 03:18:15;;;;;;;23.53;9.90;;;;;;;-0.14;100.00;97645.63;4236296;28;20230;-66
2024/01/15 03:20:42;;;;;;;26.50;10.13;;;;;;;-0.13;100.00;97646.47;4228793;28;20234;-65
2024/01/15 03:23:08;;;;;;;23.40;9.37;;;;;;;-0.16;100.00;97652.91;4224332;28;21281;-64
2024/01/15 03:25:35;;;;;;;27.80;10.47;;;;;;;-0.19;100.00;97650.56;4256253;28;20279;-64
2024/01/15 03:28:01;;;;;;;31.37;10.80;;;;;;;-0.24;100.00;97647.50;4238717;28;20233;-68
2024/01/15 03:30:28;;;;;;;33.07;11.63;;;;;;;-0.36;100.00;97641.53;4256823;28;20229;-65
2024/01/15 03:32:55;;;;;;;28.47;11.00;;;;;;;-0.30;100.00;97626.84;4260352;28;22190;-67
2024/01/15 03:35:21;;;;;;;31.47;10.90;;;;;;;-0.38;100.00;97636.38;4247511;28;20322;-66
2024/01/15 03:37:48;;;;;;;22.53;9.57;;;;;;;-0.33;100.00;97625.31;4240488;28;20382;-64
2024/01/15 03:40:14;;;;;;;33.07;10.57;;;;;;;-0.24;100.00;97626.22;4239961;28;21269;-63
2024/01/15 03:42:45;;;;;;;25.40;10.27;;;;;;;-0.14;100.00;97620.84;4245622;28;20539;-65
2024/01/15 03:45:11;;;;;;;24.80;9.27;;;;;;;-0.16;100.00;97618.34;4242233;28;20241;-64
2024/01/15 03:47:38;;;;;;;27.00;9.73;;;;;;;-0.13;100.00;97604.78;4241864;28;20851;-66
2024/01/15 03:50:06;;;;;;;28.00;10.63;;;;;;;-0.13;100.00;97604.78;4242573;28;20231;-66
2024/01/15 03:52:32;;;;;;;23.90;10.57;;;;;;;-0.09;100.00;97619.44;4248044;28;20358;-64
2024/01/15 03:54:59;;;;;;;18.57;7.57;;;;;;;-0.07;100.00;97608.63;4242907;28;20528;-63
2024/01/15 03:57:25;;;;;;;23.33;8.73;;;;;;;-0.07;100.00;97595.34;4248184;28;20696;-65
2024/01/15 03:59:52;;;;;;;21.53;8.30;;;;;;;-0.04;100.00;97589.72;4255220;28;20454;-66
2024/01/15 04:02:18;;;;;;;25.90;10.13;;;;;;;-0.16;100.00;97586.44;4250962;28;20307;-63
2024/01/15 04:04:45;;;;;;;32.53;10.70;;;;;;;-0.18;100.00;97597.25;4234569;28;23765;-66
2024/01/15 04:07:12;;;;;;;25.03;10.13;;;;;;;-0.12;100.00;97592.31;4243940;28;20248;-66
2024/01/15 04:09:38;;;;;;;25.67;9.63;;;;;;;-0.14;100.00;97587.16;4247802;28;21246;-66
2024/01/15 04:12:05;;;;;;;25.63;9.20;;;;;;;-0.09;100.00;97579.53;4247506;28;20299;-66
2024/01/15 04:14:32;;;;;;;30.40;10.03;;;;;;;-0.09;100.00;97571.56;4247261;28;20247;-64
2024/01/15 04:16:58;;;;;;;21.57;9.43;;;;;;;-0.05;100.00;97556.16;4248834;28;21142;-65
2024/01/15 04:19:25;;;;;;;27.27;10.77;;;;;;;-0.08;100.00;97567.09;4244225;28;20231;-67
2024/01/15 04:21:51;;;;;;;26.90;11.60;;;;;;;-0.04;100.00;97557.81;4262678;28;20242;-64
2024/01/15 04:24:18;;;;;;;21.67;8.47;;;;;;;-0.01;100.00;97549.56;4257500;28;21140;-64
2024/01/15 04:26:45;;;;;;;27.97;9.30;;;;;;;-0.05;100.00;97548.16;4242510;28;22851;-66
2024/01/15 04:29:12;;;;;;;32.93;9.33;;;;;;;0.00;100.00;97543.25;4256766;28;20662;-63
2024/01/15 04:31:38;;;;;;;28.07;10.60;;;;;;;-0.07;100.00;97528.84;4251437;28;20225;-64
2024/01/15 04:34:05;;;;;;;23.77;9.13;;;;;;;-0.02;100.00;97524.75;4247314;28;20440;-65
2024/01/15 04:36:38;;;;;;;21.20;8.57;;;;;;;-0.01;100.00;97512.31;4245562;28;20248;-64
2024/01/15 04:39:04;;;;;;;25.73;8.90;;;;;;;0.03;100.00;97519.00;4247533;28;21834;-65
2024/01/15 04:41:31;;;;;;;24.07;9.27;;;;;;;0.09;100.00;97518.38;4258823;28;20261;-64
2024/01/15 04:43:57;;;;;;;19.53;7.80;;;;;;;0.03;100.00;97512.84;4243766;28;20242;-65
2024/01/15 04:46:24;;;;;;;25.20;9.03;;;;;;;-0.01;100.00;97514.97;4251348;28;20221;-64
2024/01/15 04:48:50;;;;;;;23.83;9.50;;;;;;;-0.03;100.00;97512.44;4247979;28;22182;-65
2024/01/15 04:51:18;;;;;;;20.23;8.07;;;;;;;0.02;100.00;97519.16;4243680;28;21190;-65
2024/01/15 04:53:45;;;;;;;19.47;8.60;;;;;;;0.03;100.00;97508.34;4243013;28;20230;-67
2024/01/15 04:56:11;;;;;;;22.10;8.67;;;;;;;0.03;100.00;97503.03;4260735;28;21300;-63
2024/01/15 04:58:38;;;;;;;19.37;7.70;;;;;;;0.06;100.00;97513.38;4249849;28;20263;-64
2024/01/15 05:01:04;;;;;;;22.37;8.60;;;;;;;0.10;100.00;97508.59;4243613;28;22825;-66
2024/01/15 05:03:31;;;;;;;17.07;7.47;;;;;;;0.03;100.00;97521.66;4228336;28;21142;-65
2024/01/15 05:05:57;;;;;;;19.97;7.73;;;;;;;0.14;100.00;97510.78;4244680;28;20233;-65
2024/01/15 05:08:24;;;;;;;20.70;7.70;;;;;;;0.07;100.00;97515.06;4252882;28;20390;-67
2024/01/15 05:10:50;;;;;;;16.90;7.60;;;;;;;0.04;100.00;97502.06;4248401;28;21556;-65
2024/01/15 05:13:17;;;;;;;22.80;9.30;;;;;;;0.07;100.00;97506.22;4246058;28;20235;-63
2024/01/15 05:15:43;;;;;;;20.13;7.57;;;;;;;0.08;100.00;97506.06;4243700;28;21774;-63
2024/01/15 05:18:10;;;;;;;19.93;8.83;;;;;;;0.12;100.00;97494.16;4250892;28;20671;-65
2024/01/15 05:20:37;;;;;;;19.87;8.03;;;;;;;0.11;100.00;97494.31;4248551;28;20230;-65
2024/01/15 05:23:04;;;;;;;20.83;8.20;;;;;;;0.08;100.00;97497.25;4244742;28;23413;-65
2024/01/15 05:25:31;;;;;;;33.57;9.03;;;;;;;0.10;100.00;97498.78;4250318;28;20234;-65
2024/01/15 05:27:57;;;;;;;20.50;8.53;;;;;;;0.08;100.00;97489.28;4248071;28;25343;-66
2024/01/15 05:30:24;;;;;;;23.17;8.80;;;;;;;0.08;100.00;97489.28;4243404;28;20230;-66
2024/01/15 05:32:51;;;;;;;20.27;8.93;;;;;;;0.01;100.00;97490.88;4245374;28;20319;-66
2024/01/15 05:35:17;;;;;;;26.80;9.10;;;;;;;0.06;100.00;97488.59;4248520;28;20311;-64
2024/01/15 05:37:45;;;;;;;19.43;8.97;;;;;;;0.03;100.00;97489.75;4249023;28;21784;-66
2024/01/15 05:40:14;;;;;;;23.53;8.00;;;;;;;0.01;100.00;97481.06;4240229;28;20234;-63
2024/01/15 05:42:41;;;;;;;18.97;8.07;;;;;;;0.02;100.00;97485.41;4244616;28;20266;-64
2024/01/15 05:45:08;;;;;;;25.67;9.27;;;;;;;0.10;100.00;97489.97;4249936;28;20591;-66
2024/01/15 05:47:35;;;;;;;21.07;8.53;;;;;;;0.19;100.00;97483.69;4248621;28;20242;-65
2024/01/15 05:50:02;;;;;;;23.80;9.30;;;;;;;0.08;100.00;97476.81;4244296;28;20292;-65
2024/01/15 05:52:29;;;;;;;26.63;8.50;;;;;;;0.10;100.00;97485.47;4253740;28;22974;-64
2024/01/15 05:54:56;;;;;;;22.83;9.17;;;;;;;0.01;100.00;97475.75;4247400;28;20512;-65
2024/01/15 05:57:23;;;;;;;20.70;8.17;;;;;;;0.01;100.00;97478.41;4246204;28;20226;-64
2024/01/15 05:59:49;;;;;;;18.03;8.03;;;;;;;0.07;100.00;97477.81;4242227;28;22267;-66
2024/01/15 06:02:16;;;;;;;20.50;8.27;;;;;;;0.03;100.00;97468.47;4249985;28;20320;-64
2024/01/15 06:04:43;;;;;;;20.70;8.40;;;;;;;0.00;100.00;97466.13;4227472;28;22914;-65
2024/01/15 06:07:09;;;;;;;25.27;8.80;;;;;;;0.01;100.00;97454.47;4252061;28;21176;-63
2024/01/15 06:09:36;;;;;;;20.93;9.20;;;;;;;-0.05;100.00;97460.41;4245226;28;20235;-64
2024/01/15 06:12:03;;;;;;;19.87;8.67;;;;;;;-0.07;100.00;97451.75;4245721;28;20230;-64
2024/01/15 06:14:30;;;;;;;15.60;6.83;;;;;;;-0.02;100.00;97455.63;4241570;28;20979;-65
2024/01/15 06:16:56;;;;;;;20.07;7.80;;;;;;;-0.03;100.00;97447.81;4252901;28;20239;-66
2024/01/15 06:19:23;;;;;;;19.43;8.53;;;;;;;-0.07;100.00;97452.59;4247968;28;21204;-65
2024/01/15 06:21:50;;;;;;;23.10;8.07;;;;;;;-0.04;100.00;97452.28;4311772;28;20328;-67
2024/01/15 06:24:20;;;;;;;24.47;8.90;;;;;;;-0.08;100.00;97458.91;4271008;28;20595;-65
2024/01/15 06:26:47;;;;;;;19.67;7.20;;;;;;;0.06;100.00;97454.88;4264137;28;21609;-75
2024/01/15 06:29:14;;;;;;;18.13;7.87;;;;;;;-0.08;100.00;97453.59;4250794;28;23101;-70
2024/01/15 06:31:40;;;;;;;17.97;7.80;;;;;;;-0.07;100.00;97451.75;4253427;28;24033;-71
2024/01/15 06:34:07;;;;;;;23.40;8.27;;;;;;;0.02;100.00;97447.34;4274310;28;20739;-65
2024/01/15 06:36:34;;;;;;;22.50;8.17;;;;;;;-0.12;100.00;97438.94;4226800;28;20239;-65
2024/01/15 06:39:01;;;;;;;19.40;7.87;;;;;;;-0.12;100.00;97435.44;4252476;28;20411;-67
2024/01/15 06:41:27;;;;;;;23.00;8.13;;;;;;;-0.14;100.00;97437.41;4279364;28;20675;-67
2024/01/15 06:43:55;;;;;;;17.80;7.57;;;;;;;-0.09;100.00;97427.16;4271950;28;20245;-66
2024/01/15 06:46:23;;;;;;;18.87;8.37;;;;;;;-0.15;100.00;97436.56;4254801;28;20735;-68
2024/01/15 06:48:49;;;;;;;21.70;8.30;;;;;;;-0.01;100.00;97449.31;4245128;28;20235;-66
2024/01/15 06:51:16;;;;;;;22.37;9.17;;;;;;;-0.01;100.00;97429.88;4262256;28;20226;-67
2024/01/15 06:53:43;;;;;;;21.63;8.33;;;;;;;0.08;100.00;97442.22;4257756;28;21075;-68
2024/01/15 06:56:13;;;;;;;17.83;7.13;;;;;;;0.03;100.00;97435.72;4244265;28;21446;-65
2024/01/15 06:58:39;;;;;;;17.17;7.63;;;;;;;0.06;100.00;97444.22;4245066;28;21542;-67
2024/01/15 07:01:07;;;;;;;20.63;8.13;;;;;;;0.08;100.00;97433.44;4230797;28;25379;-65
2024/01/15 07:03:34;;;;;;;25.93;9.33;;;;;;;0.04;100.00;97437.41;4268678;28;20241;-66
2024/01/15 07:06:01;;;;;;;26.13;9.37;;;;;;;0.07;100.00;97437.94;4261883;28;21323;-67
2024/01/15 07:08:28;;;;;;;21.90;8.73;;;;;;;0.02;100.00;97444.69;4276105;28;20248;-66
2024/01/15 07:10:55;;;;;;;18.23;8.03;;;;;;;-0.04;100.00;97438.97;4351280;28;20223;-67
2024/01/15 07:13:22;;;;;;;22.37;9.47;;;;;;;-0.06;100.00;97446.28;4378074;28;20520;-68
2024/01/15 07:15:50;;;;;;;22.90;8.40;;;;;;;0.01;100.00;97437.69;4355651;28;20241;-67
2024/01/15 07:18:17;;;;;;;17.30;8.50;;;;;;;-0.01;100.00;97440.53;4329399;28;20356;-66
2024/01/15 07:20:44;;;;;;;26.73;9.53;;;;;;;-0.09;100.00;97448.44;4369502;28;20318;-68
2024/01/15 07:23:12;;;;;;;21.40;9.97;;;;;;;-0.21;100.00;97447.81;4344509;28;20235;-67
2024/01/15 07:25:39;;;;;;;19.00;8.87;;;;;;;-0.24;100.00;97442.81;4323540;28;20240;-68
2024/01/15 07:28:06;;;;;;;29.00;8.83;;;;;;;-0.25;100.00;97449.97;4351614;28;20360;-66
2024/01/15 07:30:33;;;;;;;22.07;9.13;;;;;;;-0.28;100.00;97444.94;4328824;28;22519;-67
2024/01/15 07:33:00;;;;;;;26.33;8.73;;;;;;;-0.22;100.00;97440.84;4294667;28;22312;-67
2024/01/15 07:35:27;;;;;;;20.23;7.83;;;;;;;-0.29;100.00;97448.56;4307266;28;20331;-67
2024/01/15 07:37:54;;;;;;;21.80;8.93;;;;;;;-0.26;100.00;97450.09;4339886;28;21585;-67
2024/01/15 07:40:21;;;;;;;18.83;8.60;;;;;;;-0.23;100.00;97455.13;4361389;28;22222;-69
2024/01/15 07:42:48;;;;;;;24.90;9.27;;;;;;;-0.26;100.00;97450.94;4345579;28;20364;-66
2024/01/15 07:45:15;;;;;;;26.10;9.53;;;;;;;-0.24;100.00;97458.75;4287982;28;21371;-67
2024/01/15 07:47:41;;;;;;;21.67;9.37;;;;;;;-0.23;100.00;97461.28;4265588;28;20238;-65
2024/01/15 07:50:08;;;;;;;23.37;9.07;;;;;;;-0.14;100.00;97448.03;4253132;28;21706;-68
2024/01/15 07:52:36;;;;;;;21.47;8.67;;;;;;;-0.06;100.00;97453.41;4293640;28;20352;-67
2024/01/15 07:55:05;;;;;;;23.47;9.67;;;;;;;-0.21;100.00;97448.66;4314617;28;25018;-68
2024/01/15 07:57:31;;;;;;;27.60;9.67;;;;;;;-0.18;100.00;97459.00;4247613;28;21353;-64
2024/01/15 07:59:58;;;;;;;19.83;9.00;;;;;;;-0.12;100.00;97459.34;4282594;28;21676;-68
2024/01/15 08:02:25;;;;;;;33.03;9.73;;;;;;;-0.41;100.00;97468.41;4254578;28;25491;-68
2024/01/15 08:04:51;;;;;;;25.23;8.90;;;;;;;-0.46;100.00;97460.88;4253444;28;20273;-67
2024/01/15 08:07:18;;;;;;;26.87;10.13;;;;;;;-0.42;100.00;97467.59;4249974;28;20234;-67
2024/01/15 08:09:47;;;;;;;28.20;10.33;;;;;;;-0.41;100.00;97447.16;4265198;28;20279;-63
2024/01/15 08:12:14;;;;;;;24.17;9.30;;;;;;;-0.40;100.00;97465.59;4252862;28;22103;-66
2024/01/15 08:14:41;;;;;;;34.87;10.90;;;;;;;-0.53;100.00;97457.16;4247000;28;20723;-66
2024/01/15 08:17:07;;;;;;;23.87;10.37;;;;;;;-0.55;100.00;97456.47;4257983;28;20252;-66
2024/01/15 08:19:34;;;;;;;21.70;8.43;;;;;;;-0.48;100.00;97460.19;4239194;28;22652;-68
2024/01/15 08:22:01;;;;;;;26.63;11.67;;;;;;;-0.44;100.00;97455.41;4243389;28;20226;-65
2024/01/15 08:24:28;;;;;;;22.53;11.30;;;;;;;-0.44;100.00;97463.38;4254120;28;20226;-66
2024/01/15 08:26:56;;;;;;;25.93;10.13;;;;;;;-0.35;100.00;97460.69;4248645;28;20325;-65
2024/01/15 08:29:24;;;;;;;15.00;7.20;;;;;;;-0.26;100.00;97463.38;4291609;28;20239;-67
2024/01/15 08:31:51;;;;;;;25.00;9.77;;;;;;;-0.21;100.00;97461.94;4223525;28;20543;-69
2024/01/15 08:34:18;;;;;;;17.83;8.97;;;;;;;-0.14;100.00;97463.97;4266535;28;20288;-66
2024/01/15 08:36:44;;;;;;;21.77;8.13;;;;;;;0.05;100.00;97466.50;4251525;28;20240;-67
2024/01/15 08:39:11;;;;;;;18.97;7.53;;;;;;;0.09;100.00;97465.19;4252916;28;20240;-65
2024/01/15 08:41:38;;;;;;;15.07;7.20;;;;;;;-0.12;100.00;97470.00;4248363;28;20235;-68
2024/01/15 08:44:05;;;;;;;19.73;8.30;;;;;;;-0.15;100.00;97457.03;4247814;28;20238;-66
2024/01/15 08:46:31;;;;;;;22.43;8.27;;;;;;;-0.27;100.00;97465.22;4251042;28;20305;-66
2024/01/15 08:48:58;;;;;;;17.40;8.27;;;;;;;-0.36;100.00;97466.97;4249067;28;22312;-66
2024/01/15 08:51:24;;;;;;;18.80;7.70;;;;;;;-0.38;100.00;97465.47;4236037;28;20341;-65
2024/01/15 08:53:51;;;;;;;20.43;7.43;;;;;;;-0.32;100.00;97470.97;4235758;28;21278;-65
2024/01/15 08:56:18;;;;;;;23.37;10.37;;;;;;;-0.34;100.00;97470.28;4258764;28;20293;-65
2024/01/15 08:58:46;;;;;;;23.03;9.43;;;;;;;-0.24;100.00;97470.25;4249241;28;20316;-66
2024/01/15 09:01:13;;;;;;;17.17;8.40;;;;;;;-0.22;100.00;97467.41;4248683;28;20241;-64
2024/01/15 09:03:42;;;;;;;25.97;9.67;;;;;;;-0.26;100.00;97480.19;4255043;28;25643;-65
2024/01/15 09:06:09;;;;;;;21.63;10.10;;;;;;;-0.24;100.00;97478.22;4240023;28;20413;-63
2024/01/15 09:08:36;;;;;;;20.20;8.30;;;;;;;-0.08;100.00;97480.16;4260957;28;20260;-64
2024/01/15 09:11:03;;;;;;;22.43;9.13;;;;;;;0.02;100.00;97479.25;4254163;28;25389;-67
2024/01/15 09:13:30;;;;;;;16.43;7.90;;;;;;;0.15;100.00;97487.69;4257413;28;20237;-62
2024/01/15 09:15:58;;;;;;;14.33;7.30;;;;;;;0.75;98.54;97481.59;4275492;28;20239;-64
2024/01/15 09:18:25;;;;;;;16.00;7.07;;;;;;;1.36;93.62;97486.00;4281081;28;20226;-65
2024/01/15 09:20:52;;;;;;;15.30;6.57;;;;;;;1.06;93.37;97474.91;4296924;28;20413;-70
2024/01/15 09:23:19;;;;;;;14.03;5.90;;;;;;;0.92;94.30;97479.00;4227767;28;20282;-66
2024/01/15 09:25:47;;;;;;;11.47;5.70;;;;;;;1.12;92.78;97481.44;4279067;28;20229;-65
2024/01/15 09:28:14;;;;;;;13.57;6.20;;;;;;;0.66;94.47;97473.69;4240465;28;20578;-63
2024/01/15 09:30:41;;;;;;;12.83;5.77;;;;;;;0.37;95.81;97466.88;4247676;28;20226;-65
2024/01/15 09:33:07;;;;;;;13.83;6.27;;;;;;;0.16;96.45;97457.44;4240406;28;20295;-65
2024/01/15 09:35:34;;;;;;;12.40;5.97;;;;;;;0.22;96.91;97463.97;4261083;28;22696;-63
2024/01/15 09:38:01;;;;;;;14.40;5.60;;;;;;;0.26;96.50;97460.84;4247195;28;20241;-65
2024/01/15 09:40:32;;;;;;;12.40;5.73;;;;;;;0.44;94.08;97466.09;4243990;28;21532;-65
2024/01/15 09:42:59;;;;;;;12.17;4.70;;;;;;;0.37;94.11;97473.06;4275794;28;20314;-63
2024/01/15 09:45:26;;;;;;;14.23;5.30;;;;;;;0.36;94.06;97465.19;4276626;28;20390;-65
2024/01/15 09:47:53;;;;;;;16.37;6.37;;;;;;;0.31;93.77;97466.53;4266588;28;20237;-65
2024/01/15 09:50:20;;;;;;;8.30;4.40;;;;;;;0.30;93.28;97459.53;4242293;28;20477;-67
2024/01/15 09:52:48;;;;;;;12.43;4.20;;;;;;;0.31;92.81;97471.84;4232697;28;20225;-63
2024/01/15 09:55:16;;;;;;;16.40;5.00;;;;;;;0.23;92.52;97462.94;4247371;28;20242;-64
2024/01/15 09:57:45;;;;;;;10.77;4.87;;;;;;;0.24;92.26;97460.16;4238216;28;20262;-64
2024/01/15 10:00:13;;;;;;;13.50;4.47;;;;;;;0.28;91.87;97448.19;4251793;28;20231;-63
2024/01/15 10:02:40;;;;;;;12.23;4.87;;;;;;;0.36;90.27;97459.88;4268530;28;20225;-65
2024/01/15 10:05:07;;;;;;;9.03;4.03;;;;;;;0.43;89.78;97467.09;4252824;28;20275;-66
2024/01/15 10:07:36;;;;;;;10.93;4.60;;;;;;;0.40;90.27;97447.94;4230995;28;20229;-65
2024/01/15 10:10:03;;;;;;;10.47;4.13;;;;;;;0.28;90.35;97439.38;4250296;28;21527;-65
2024/01/15 10:12:30;;;;;;;8.93;4.53;;;;;;;0.35;89.66;97439.56;4256297;28;20656;-65
2024/01/15 10:14:57;;;;;;;10.57;3.93;;;;;;;0.33;90.04;97439.75;4247759;28;23033;-66
2024/01/15 10:17:27;;;;;;;11.30;4.50;;;;;;;0.33;89.61;97444.25;4259466;28;20412;-66
2024/01/15 10:19:53;;;;;;;12.87;4.47;;;;;;;0.37;89.48;97448.25;4267752;28;20230;-67
2024/01/15 10:22:20;;;;;;;9.47;4.20;;;;;;;0.45;89.69;97458.94;4260276;28;20905;-65
2024/01/15 10:24:47;;;;;;;12.00;4.20;;;;;;;0.33;89.70;97445.06;4230047;28;20233;-63
2024/01/15 10:27:15;;;;;;;10.03;4.70;;;;;;;0.23;91.22;97471.78;4242684;28;20226;-63
2024/01/15 10:29:42;;;;;;;14.50;5.53;;;;;;;0.09;93.05;97448.41;4258566;28;20229;-64
2024/01/15 10:32:09;;;;;;;14.10;5.57;;;;;;;0.06;93.54;97446.03;4264991;28;20243;-65
2024/01/15 10:34:40;;;;;;;12.60;6.20;;;;;;;0.10;93.98;97458.06;4241314;28;20234;-64
2024/01/15 10:37:09;;;;;;;14.90;4.63;;;;;;;0.17;93.49;97442.28;4258960;28;21202;-64
2024/01/15 10:39:37;;;;;;;10.37;4.67;;;;;;;0.30;93.67;97453.38;4256560;28;20238;-64
2024/01/15 10:42:06;;;;;;;14.43;4.17;;;;;;;0.29;93.87;97449.03;4249442;28;20234;-66
2024/01/15 10:44:33;;;;;;;12.17;5.53;;;;;;;0.31;93.55;97441.72;4237345;28;20992;-62
2024/01/15 10:47:00;;;;;;;16.10;5.70;;;;;;;0.36;93.34;97451.91;4242018;28;20263;-65
2024/01/15 10:49:29;;;;;;;12.80;5.67;;;;;;;0.32;93.70;97440.72;4260356;28;20593;-64
2024/01/15 10:52:00;;;;;;;13.00;5.47;;;;;;;0.19;94.10;97456.28;4244689;28;20226;-62
2024/01/15 10:54:29;;;;;;;13.13;5.37;;;;;;;0.21;94.21;97447.16;4247896;28;21222;-65
2024/01/15 10:56:56;;;;;;;15.50;6.17;;;;;;;0.26;94.66;97446.69;4256102;28;20250;-64
2024/01/15 10:59:23;;;;;;;10.27;4.77;;;;;;;0.25;94.81;97440.53;4250844;28;20631;-65
2024/01/15 11:01:53;;;;;;;10.47;4.67;;;;;;;0.26;94.40;97452.00;4265378;28;22013;-64
2024/01/15 11:04:22;;;;;;;12.20;4.80;;;;;;;0.20;94.97;97452.63;4248211;28;20250;-63
2024/01/15 11:06:53;;;;;;;15.43;5.57;;;;;;;0.22;94.34;97446.16;4250462;28;20831;-65
2024/01/15 11:09:23;;;;;;;12.70;5.23;;;;;;;0.22;94.96;97443.50;4231744;28;21472;-67
2024/01/15 11:11:53;;;;;;;15.93;6.13;;;;;;;0.19;94.38;97433.16;4255728;28;21777;-66
2024/01/15 11:14:50;;;;;;;11.93;4.73;;;;;;;0.21;94.77;97447.16;4248966;28;21606;-71
2024/01/15 11:17:18;;;;;;;13.40;5.37;;;;;;;0.14;94.76;97444.28;4245408;28;20885;-64
2024/01/15 11:19:47;;;;;;;14.73;5.23;;;;;;;0.21;94.60;97439.16;4267604;28;20245;-65